Pagrindinis puslapis
METAR-TAF:

METAR-TAF

Oro uostai :

Gafsa, Tunisas

platuma: 34-25N, ilguma: 008-49E, Aukštis: 313 m

Dabartinis oras

Ataskaita buvo paskelbta 44 minutes, ne 02:00 UTC
Vėjas 11 kt iš Šiaurės Rytų
Temperatūra 18°C
Drėgmė 83%
Slėgis 1014 hPa
Matomumas 10 km arba daugiau
Mažai debesys ne aukštis 2600 ft

METAR: DTTF 310200Z 04011KT 9999 FEW026 18/15 Q1014 NOSIG

Laikas: 03:44 (02:44 UTC)

Prognozė

Ataskaita buvo paskelbta 2 valandos ir 44 minutes, ne 00:00 UTC
Prognozė galioja nuo 31 metu 01 UTC su 31 metu 10 UTC
Vėjas 10 kt iš Šiaurės Rytų
Matomumas 10 km arba daugiau
Mažai debesys ne aukštis 2600 ft

TAF: DTTF 310000Z 3101/3110 05010KT 9999 FEW026

Orai ataskaitas ir orų prognozės (METAR, TAF).

turimą stotys yra geltonos ir raudonos taškus žemėlapyje.

Perkelti pele per norėdami pamatyti stoties vardą.

Tada spustelėkite, norėdami matyti oro stebėjimo ir prognozės.

Norėdami pakeisti žemėlapį: spustelėkite ant žalios mygtukų su juodo kryžiaus žemyn,; žalią mygtuką su brūkšneliu, jei norite nutolinti; arba žalių rodyklių gretimoms žemėlapius.


METAR-TAF: